Bells, Texas
Current Conditions -  °F | °C
As of 6:55 AM on Friday 19 Dec 2014 (Local Time) from KGYI Reporting Station
Moderate Fog Moderate Fog  
Wind Chill: 44°   Ceiling: 100
Heat Index: 44°   Visibility: 0.5mi
Dew Point: 44°   Wind: 0mph
Humidity: 100%   Direction: NA
Pressure: 30.19"   Gusts: NA
Location:  33.61°N, 96.41°W
Report Text: KGYI 191255Z AUTO 00000KT 1/2SM FG OVC001 07/07 A3019 RMK AO2 LTG DSNT S T00650065
Loading
Personal Weather Stations






























Interactive Weather Map New forecast layout! Learn more

10-Day Weather Forecast

Advertisements
Track Severe Weather on mobile